PWSweather.com
Personal Weather Stations
Station Observations
PENICUIKWS
PenicuikGB

PenicuikGB

Lat: 55.830932, Lon: -3.224533000000065

Elevation: 166

Station Type: Fine Offset

http://weather.penicuik.org

High Low Average
Temperature 68.7°F20.4°C 48.7°F9.3°C 59.2°F15.1°C
Dew Point 57.3°F14.1°C 48.5°F9.2°C 52.7°F11.5°C
Winds 7.4 mph 11.9 kmh Calm Calm 3.0 mph S4.8 kmh S
Wind Gusts 15.9 mph25.6 kmh -- 6.0 mph9.7 kmh
Humidity 99% 55% 81%
Pressure 29.94 in1013.9 mb 29.79 in1008.8 mb -
Precipitation 0.01 in0.3 mm - -
Hour Temp Dew Point Humidity Winds Wind Gusts Pressure Precip Precip Rate Daily Precip Total
12:00 AM 49.3°F9.6°C 49.0°F9.4°C 99% Calm Calm -- 29.80 in1009.1 mb 0.00 in0.0 mm 0.00 in0.0 mm 0.00 in0.0 mm
12:15 AM 49.5°F9.7°C 49.2°F9.6°C 99% 1.5 mph WSW2.4 kmh WSW 3.1 mph5.0 kmh 29.80 in1009.1 mb 0.00 in0.0 mm 0.00 in0.0 mm 0.00 in0.0 mm
12:30 AM 49.5°F9.7°C 49.2°F9.6°C 99% 1.0 mph S1.6 kmh S 3.1 mph5.0 kmh 29.80 in1009.1 mb 0.00 in0.0 mm 0.00 in0.0 mm 0.00 in0.0 mm
12:45 AM 48.9°F9.4°C 48.7°F9.3°C 99% 0.5 mph SW0.8 kmh SW 1.6 mph2.6 kmh 29.80 in1009.1 mb 0.00 in0.0 mm 0.00 in0.0 mm 0.00 in0.0 mm
01:00 AM 48.7°F9.3°C 48.5°F9.2°C 99% 0.7 mph SW1.1 kmh SW 1.6 mph2.6 kmh 29.81 in1009.5 mb 0.00 in0.0 mm 0.00 in0.0 mm 0.00 in0.0 mm
01:15 AM 48.9°F9.4°C 48.7°F9.3°C 99% 1.6 mph S2.6 kmh S 3.1 mph5.0 kmh 29.80 in1009.1 mb 0.00 in0.0 mm 0.00 in0.0 mm 0.00 in0.0 mm
01:30 AM 48.9°F9.4°C 48.7°F9.3°C 99% 0.6 mph SW1.0 kmh SW 1.6 mph2.6 kmh 29.80 in1009.1 mb 0.01 in0.3 mm 0.04 in1.0 mm 0.01 in0.3 mm
01:45 AM 48.9°F9.4°C 48.7°F9.3°C 99% 0.2 mph NNW0.3 kmh NNW 0.7 mph1.1 kmh 29.79 in1008.8 mb 0.01 in0.3 mm 0.00 in0.0 mm 0.01 in0.3 mm
02:00 AM 49.6°F9.8°C 49.4°F9.7°C 99% 0.4 mph SW0.6 kmh SW 1.6 mph2.6 kmh 29.80 in1009.1 mb 0.01 in0.3 mm 0.00 in0.0 mm 0.01 in0.3 mm
02:45 AM 50.0°F10.0°C 49.7°F9.8°C 99% 0.4 mph SW0.6 kmh SW 1.6 mph2.6 kmh 29.80 in1009.1 mb 0.00 in0.0 mm 0.00 in0.0 mm 0.01 in0.3 mm
03:00 AM 50.0°F10.0°C 49.7°F9.8°C 99% 0.4 mph SW0.6 kmh SW 0.7 mph1.1 kmh 29.80 in1009.1 mb 0.00 in0.0 mm 0.00 in0.0 mm 0.01 in0.3 mm
03:15 AM 50.4°F10.2°C 50.1°F10.1°C 99% 0.1 mph SW0.2 kmh SW 0.7 mph1.1 kmh 29.79 in1008.8 mb 0.00 in0.0 mm 0.00 in0.0 mm 0.01 in0.3 mm
03:30 AM 50.9°F10.5°C 50.6°F10.3°C 99% 0.3 mph WSW0.5 kmh WSW 0.7 mph1.1 kmh 29.79 in1008.8 mb 0.00 in0.0 mm 0.00 in0.0 mm 0.01 in0.3 mm
03:45 AM 51.1°F10.6°C 50.8°F10.4°C 99% 0.3 mph N0.5 kmh N 0.7 mph1.1 kmh 29.79 in1008.8 mb 0.00 in0.0 mm 0.00 in0.0 mm 0.01 in0.3 mm
04:00 AM 52.0°F11.1°C 51.4°F10.8°C 98% 0.5 mph SW0.8 kmh SW 1.6 mph2.6 kmh 29.79 in1008.8 mb 0.00 in0.0 mm 0.00 in0.0 mm 0.01 in0.3 mm
04:15 AM 52.0°F11.1°C 51.4°F10.8°C 98% 0.5 mph NE0.8 kmh NE 0.7 mph1.1 kmh 29.80 in1009.1 mb 0.00 in0.0 mm 0.00 in0.0 mm 0.01 in0.3 mm
04:30 AM 52.2°F11.2°C 51.6°F10.9°C 98% 1.4 mph NW2.3 kmh NW 3.1 mph5.0 kmh 29.80 in1009.1 mb 0.00 in0.0 mm 0.00 in0.0 mm 0.01 in0.3 mm
04:45 AM 52.0°F11.1°C 51.4°F10.8°C 98% 0.3 mph ESE0.5 kmh ESE 3.1 mph5.0 kmh 29.80 in1009.1 mb 0.00 in0.0 mm 0.00 in0.0 mm 0.01 in0.3 mm
05:00 AM 52.0°F11.1°C 51.4°F10.8°C 98% 1.0 mph WNW1.6 kmh WNW 1.6 mph2.6 kmh 29.80 in1009.1 mb 0.00 in0.0 mm 0.00 in0.0 mm 0.01 in0.3 mm
05:15 AM 52.3°F11.3°C 51.8°F11.0°C 98% 0.6 mph S1.0 kmh S 1.6 mph2.6 kmh 29.81 in1009.5 mb 0.00 in0.0 mm 0.00 in0.0 mm 0.01 in0.3 mm
05:30 AM 52.3°F11.3°C 51.8°F11.0°C 98% 0.2 mph WSW0.3 kmh WSW 1.6 mph2.6 kmh 29.81 in1009.5 mb 0.00 in0.0 mm 0.00 in0.0 mm 0.01 in0.3 mm
05:45 AM 52.7°F11.5°C 52.2°F11.2°C 98% 0.7 mph SW1.1 kmh SW 1.6 mph2.6 kmh 29.81 in1009.5 mb 0.00 in0.0 mm 0.00 in0.0 mm 0.01 in0.3 mm
05:57 AM 52.3°F11.3°C 51.8°F11.0°C 98% Calm Calm -- 29.82 in1009.8 mb 0.00 in0.0 mm 0.00 in0.0 mm 0.01 in0.3 mm
06:27 AM 57.6°F14.2°C 57.3°F14.1°C 99% 3.1 mph SE5.0 kmh SE 3.1 mph5.0 kmh 29.83 in1010.2 mb 0.00 in0.0 mm 0.00 in0.0 mm 0.01 in0.3 mm
06:57 AM 64.9°F18.3°C 56.5°F13.6°C 74% 3.8 mph S6.1 kmh S 3.8 mph6.1 kmh 29.83 in1010.2 mb 0.00 in0.0 mm 0.00 in0.0 mm 0.01 in0.3 mm
07:27 AM 64.6°F18.1°C 53.8°F12.1°C 68% 3.1 mph SSE5.0 kmh SSE 3.1 mph5.0 kmh 29.83 in1010.2 mb 0.00 in0.0 mm 0.00 in0.0 mm 0.01 in0.3 mm
08:00 AM 63.9°F17.7°C 53.1°F11.7°C 68% 3.3 mph NE5.3 kmh NE 8.3 mph13.4 kmh 29.83 in1010.2 mb 0.00 in0.0 mm 0.00 in0.0 mm 0.01 in0.3 mm
08:30 AM 65.3°F18.5°C 54.1°F12.3°C 67% 4.7 mph S7.6 kmh S 8.3 mph13.4 kmh 29.84 in1010.5 mb 0.00 in0.0 mm 0.00 in0.0 mm 0.01 in0.3 mm
08:45 AM 66.0°F18.9°C 53.1°F11.7°C 63% 4.1 mph E6.6 kmh E 8.3 mph13.4 kmh 29.84 in1010.5 mb 0.00 in0.0 mm 0.00 in0.0 mm 0.01 in0.3 mm
09:00 AM 68.0°F20.0°C 54.1°F12.3°C 61% 6.0 mph SE9.7 kmh SE 11.4 mph18.3 kmh 29.84 in1010.5 mb 0.00 in0.0 mm 0.00 in0.0 mm 0.01 in0.3 mm
09:15 AM 66.0°F18.9°C 52.6°F11.4°C 62% 3.9 mph S6.3 kmh S 6.9 mph11.1 kmh 29.84 in1010.5 mb 0.00 in0.0 mm 0.00 in0.0 mm 0.01 in0.3 mm
09:30 AM 61.9°F16.6°C 52.0°F11.1°C 70% 4.6 mph SE7.4 kmh SE 8.3 mph13.4 kmh 29.85 in1010.8 mb 0.00 in0.0 mm 0.00 in0.0 mm 0.01 in0.3 mm
09:45 AM 61.7°F16.5°C 52.6°F11.4°C 72% 4.0 mph SSE6.4 kmh SSE 8.3 mph13.4 kmh 29.84 in1010.5 mb 0.00 in0.0 mm 0.00 in0.0 mm 0.01 in0.3 mm
10:00 AM 63.1°F17.3°C 52.4°F11.3°C 68% 5.3 mph W8.5 kmh W 9.8 mph15.8 kmh 29.85 in1010.8 mb 0.00 in0.0 mm 0.00 in0.0 mm 0.01 in0.3 mm
10:15 AM 61.7°F16.5°C 51.8°F11.0°C 70% 3.9 mph SSW6.3 kmh SSW 6.0 mph9.7 kmh 29.84 in1010.5 mb 0.00 in0.0 mm 0.00 in0.0 mm 0.01 in0.3 mm
10:30 AM 64.2°F17.9°C 55.8°F13.2°C 74% 2.3 mph WNW3.7 kmh WNW 4.5 mph7.2 kmh 29.84 in1010.5 mb 0.00 in0.0 mm 0.00 in0.0 mm 0.01 in0.3 mm
10:45 AM 68.7°F20.4°C 53.4°F11.9°C 58% 5.2 mph NE8.4 kmh NE 10.7 mph17.2 kmh 29.84 in1010.5 mb 0.00 in0.0 mm 0.00 in0.0 mm 0.01 in0.3 mm
11:15 AM 64.2°F17.9°C 49.6°F9.8°C 59% 4.3 mph NE6.9 kmh NE 6.9 mph11.1 kmh 29.85 in1010.8 mb 0.00 in0.0 mm 0.00 in0.0 mm 0.01 in0.3 mm
11:30 AM 64.0°F17.8°C 50.3°F10.2°C 61% 4.1 mph WSW6.6 kmh WSW 11.4 mph18.3 kmh 29.85 in1010.8 mb 0.00 in0.0 mm 0.00 in0.0 mm 0.01 in0.3 mm
11:45 AM 68.0°F20.0°C 51.7°F10.9°C 56% 5.8 mph S9.3 kmh S 9.2 mph14.8 kmh 29.84 in1010.5 mb 0.00 in0.0 mm 0.00 in0.0 mm 0.01 in0.3 mm
12:15 PM 66.9°F19.4°C 50.2°F10.1°C 55% 5.2 mph WSW8.4 kmh WSW 15.9 mph25.6 kmh 29.85 in1010.8 mb 0.00 in0.0 mm 0.00 in0.0 mm 0.01 in0.3 mm
12:30 PM 64.8°F18.2°C 50.6°F10.3°C 60% 6.8 mph N10.9 kmh N 13.0 mph20.9 kmh 29.85 in1010.8 mb 0.00 in0.0 mm 0.00 in0.0 mm 0.01 in0.3 mm
12:45 PM 63.9°F17.7°C 49.3°F9.6°C 59% 5.0 mph NNW8.0 kmh NNW 9.2 mph14.8 kmh 29.86 in1011.2 mb 0.00 in0.0 mm 0.00 in0.0 mm 0.01 in0.3 mm
01:00 PM 66.9°F19.4°C 51.2°F10.7°C 57% 6.1 mph ENE9.8 kmh ENE 11.4 mph18.3 kmh 29.86 in1011.2 mb 0.00 in0.0 mm 0.00 in0.0 mm 0.01 in0.3 mm
01:15 PM 66.9°F19.4°C 50.7°F10.4°C 56% 5.4 mph E8.7 kmh E 7.6 mph12.2 kmh 29.87 in1011.5 mb 0.00 in0.0 mm 0.00 in0.0 mm 0.01 in0.3 mm
01:30 PM 65.7°F18.7°C 52.3°F11.3°C 62% 7.4 mph WSW11.9 kmh WSW 14.5 mph23.3 kmh 29.86 in1011.2 mb 0.00 in0.0 mm 0.00 in0.0 mm 0.01 in0.3 mm
01:45 PM 66.7°F19.3°C 52.9°F11.6°C 61% 7.1 mph SW11.4 kmh SW 9.2 mph14.8 kmh 29.87 in1011.5 mb 0.00 in0.0 mm 0.00 in0.0 mm 0.01 in0.3 mm
02:00 PM 65.3°F18.5°C 52.0°F11.1°C 62% 5.9 mph E9.5 kmh E 10.7 mph17.2 kmh 29.88 in1011.9 mb 0.00 in0.0 mm 0.00 in0.0 mm 0.01 in0.3 mm
02:30 PM 62.6°F17.0°C 51.5°F10.8°C 67% 7.0 mph N11.3 kmh N 9.8 mph15.8 kmh 29.88 in1011.9 mb 0.00 in0.0 mm 0.00 in0.0 mm 0.01 in0.3 mm
02:45 PM 62.6°F17.0°C 52.3°F11.3°C 69% 4.0 mph N6.4 kmh N 4.5 mph7.2 kmh 29.88 in1011.9 mb 0.00 in0.0 mm 0.00 in0.0 mm 0.01 in0.3 mm
03:00 PM 62.4°F16.9°C 51.7°F10.9°C 68% 4.0 mph SSE6.4 kmh SSE 7.6 mph12.2 kmh 29.89 in1012.2 mb 0.00 in0.0 mm 0.00 in0.0 mm 0.01 in0.3 mm
03:45 PM 61.7°F16.5°C 53.3°F11.8°C 74% 5.1 mph WNW8.2 kmh WNW 8.3 mph13.4 kmh 29.89 in1012.2 mb 0.00 in0.0 mm 0.00 in0.0 mm 0.01 in0.3 mm
04:00 PM 61.5°F16.4°C 53.5°F11.9°C 75% 4.0 mph NW6.4 kmh NW 6.0 mph9.7 kmh 29.89 in1012.2 mb 0.00 in0.0 mm 0.00 in0.0 mm 0.01 in0.3 mm
04:15 PM 61.0°F16.1°C 53.4°F11.9°C 76% 5.8 mph S9.3 kmh S 10.7 mph17.2 kmh 29.89 in1012.2 mb 0.00 in0.0 mm 0.00 in0.0 mm 0.01 in0.3 mm
04:30 PM 61.2°F16.2°C 53.6°F12.0°C 76% 4.1 mph WSW6.6 kmh WSW 6.9 mph11.1 kmh 29.89 in1012.2 mb 0.00 in0.0 mm 0.00 in0.0 mm 0.01 in0.3 mm
04:45 PM 61.2°F16.2°C 53.6°F12.0°C 76% 4.3 mph NE6.9 kmh NE 8.3 mph13.4 kmh 29.90 in1012.5 mb 0.00 in0.0 mm 0.00 in0.0 mm 0.01 in0.3 mm
05:00 PM 61.3°F16.3°C 54.1°F12.3°C 77% 3.6 mph W5.8 kmh W 8.3 mph13.4 kmh 29.89 in1012.2 mb 0.00 in0.0 mm 0.00 in0.0 mm 0.01 in0.3 mm
05:15 PM 61.2°F16.2°C 54.3°F12.4°C 78% 4.6 mph N7.4 kmh N 7.6 mph12.2 kmh 29.89 in1012.2 mb 0.00 in0.0 mm 0.00 in0.0 mm 0.01 in0.3 mm
05:45 PM 61.3°F16.3°C 54.1°F12.3°C 77% 2.9 mph NNE4.7 kmh NNE 4.5 mph7.2 kmh 29.90 in1012.5 mb 0.00 in0.0 mm 0.00 in0.0 mm 0.01 in0.3 mm
06:00 PM 61.2°F16.2°C 53.9°F12.2°C 77% 4.1 mph W6.6 kmh W 9.8 mph15.8 kmh 29.90 in1012.5 mb 0.00 in0.0 mm 0.00 in0.0 mm 0.01 in0.3 mm
06:15 PM 61.0°F16.1°C 53.7°F12.1°C 77% 3.8 mph NW6.1 kmh NW 8.3 mph13.4 kmh 29.90 in1012.5 mb 0.00 in0.0 mm 0.00 in0.0 mm 0.01 in0.3 mm
06:30 PM 61.2°F16.2°C 54.3°F12.4°C 78% 4.8 mph SSE7.7 kmh SSE 9.8 mph15.8 kmh 29.90 in1012.5 mb 0.00 in0.0 mm 0.00 in0.0 mm 0.01 in0.3 mm
06:45 PM 61.5°F16.4°C 54.3°F12.4°C 77% 4.0 mph NNE6.4 kmh NNE 6.0 mph9.7 kmh 29.91 in1012.9 mb 0.00 in0.0 mm 0.00 in0.0 mm 0.01 in0.3 mm
07:00 PM 61.5°F16.4°C 54.6°F12.6°C 78% 5.0 mph E8.0 kmh E 9.2 mph14.8 kmh 29.91 in1012.9 mb 0.00 in0.0 mm 0.00 in0.0 mm 0.01 in0.3 mm
07:15 PM 61.3°F16.3°C 54.4°F12.4°C 78% 4.2 mph NE6.8 kmh NE 7.6 mph12.2 kmh 29.91 in1012.9 mb 0.00 in0.0 mm 0.00 in0.0 mm 0.01 in0.3 mm
07:30 PM 61.0°F16.1°C 54.4°F12.4°C 79% 4.8 mph ENE7.7 kmh ENE 8.3 mph13.4 kmh 29.91 in1012.9 mb 0.00 in0.0 mm 0.00 in0.0 mm 0.01 in0.3 mm
07:45 PM 60.8°F16.0°C 54.6°F12.6°C 80% 3.9 mph NNE6.3 kmh NNE 9.8 mph15.8 kmh 29.91 in1012.9 mb 0.00 in0.0 mm 0.00 in0.0 mm 0.01 in0.3 mm
08:00 PM 60.4°F15.8°C 54.9°F12.7°C 82% 4.6 mph S7.4 kmh S 9.2 mph14.8 kmh 29.91 in1012.9 mb 0.00 in0.0 mm 0.00 in0.0 mm 0.01 in0.3 mm
08:15 PM 60.4°F15.8°C 54.9°F12.7°C 82% 3.4 mph NNE5.5 kmh NNE 7.6 mph12.2 kmh 29.92 in1013.2 mb 0.00 in0.0 mm 0.00 in0.0 mm 0.01 in0.3 mm
08:30 PM 60.1°F15.6°C 54.9°F12.7°C 83% 2.7 mph N4.3 kmh N 4.5 mph7.2 kmh 29.92 in1013.2 mb 0.00 in0.0 mm 0.00 in0.0 mm 0.01 in0.3 mm
08:45 PM 59.9°F15.5°C 55.1°F12.8°C 84% 3.2 mph N5.1 kmh N 5.4 mph8.7 kmh 29.93 in1013.5 mb 0.00 in0.0 mm 0.00 in0.0 mm 0.01 in0.3 mm
09:00 PM 60.1°F15.6°C 55.2°F12.9°C 84% 3.1 mph S5.0 kmh S 5.4 mph8.7 kmh 29.93 in1013.5 mb 0.00 in0.0 mm 0.00 in0.0 mm 0.01 in0.3 mm
09:15 PM 60.1°F15.6°C 55.2°F12.9°C 84% 3.2 mph S5.1 kmh S 4.5 mph7.2 kmh 29.93 in1013.5 mb 0.00 in0.0 mm 0.00 in0.0 mm 0.01 in0.3 mm
09:30 PM 60.1°F15.6°C 55.2°F12.9°C 84% 3.3 mph S5.3 kmh S 6.0 mph9.7 kmh 29.93 in1013.5 mb 0.00 in0.0 mm 0.00 in0.0 mm 0.01 in0.3 mm
09:45 PM 60.1°F15.6°C 55.2°F12.9°C 84% 1.8 mph NNW2.9 kmh NNW 3.8 mph6.1 kmh 29.93 in1013.5 mb 0.00 in0.0 mm 0.00 in0.0 mm 0.01 in0.3 mm
10:00 PM 59.7°F15.4°C 55.2°F12.9°C 85% 1.7 mph SE2.7 kmh SE 3.1 mph5.0 kmh 29.93 in1013.5 mb 0.00 in0.0 mm 0.00 in0.0 mm 0.01 in0.3 mm
10:15 PM 59.5°F15.3°C 55.0°F12.8°C 85% 2.3 mph S3.7 kmh S 3.8 mph6.1 kmh 29.93 in1013.5 mb 0.00 in0.0 mm 0.00 in0.0 mm 0.01 in0.3 mm
10:30 PM 59.5°F15.3°C 55.4°F13.0°C 86% 2.7 mph NE4.3 kmh NE 6.0 mph9.7 kmh 29.93 in1013.5 mb 0.00 in0.0 mm 0.00 in0.0 mm 0.01 in0.3 mm
10:45 PM 59.7°F15.4°C 55.5°F13.1°C 86% 2.6 mph ENE4.2 kmh ENE 3.8 mph6.1 kmh 29.93 in1013.5 mb 0.00 in0.0 mm 0.00 in0.0 mm 0.01 in0.3 mm
11:00 PM 59.7°F15.4°C 55.9°F13.3°C 87% 2.9 mph SE4.7 kmh SE 4.5 mph7.2 kmh 29.93 in1013.5 mb 0.00 in0.0 mm 0.00 in0.0 mm 0.01 in0.3 mm
11:15 PM 59.9°F15.5°C 56.0°F13.3°C 87% 3.7 mph NW6.0 kmh NW 6.0 mph9.7 kmh 29.94 in1013.9 mb 0.00 in0.0 mm 0.00 in0.0 mm 0.01 in0.3 mm
11:30 PM 59.4°F15.2°C 56.1°F13.4°C 89% 4.0 mph S6.4 kmh S 10.7 mph17.2 kmh 29.94 in1013.9 mb 0.00 in0.0 mm 0.00 in0.0 mm 0.01 in0.3 mm
11:45 PM 58.6°F14.8°C 56.3°F13.5°C 92% 2.4 mph ESE3.9 kmh ESE 3.8 mph6.1 kmh 29.94 in1013.9 mb 0.00 in0.0 mm 0.00 in0.0 mm 0.01 in0.3 mm